Brighton, MI

1:09 AM EST on December 05, 2016 (GMT -0500)
Brighton Airport (45G) | | Change Station

Elev 974 ft 42.57 °N, 83.78 °W | Updated 8 seconds ago

Overcast
Overcast
32.7 °F
Feels Like 33 °F
N
1.0
Wind Variable Wind from WSW
Gusts 5.0 mph

Today
High -- | Low -- °F
--% Chance of Precip.
Yesterday
High -- | Low -- °F
Precip. -- in
Pressure 29.81 in
Visibility 4.0 miles
Clouds Overcast 500 ft
Windchill 33 °F
Dew Point 32 °F
Humidity 98%
Rainfall 0.00 in
Snow Depth Not available.
7:49 AM 5:01 PM
Waxing Crescent, 29% visible
METAR KOZW 050555Z AUTO 27003KT 4SM BR OVC005 00/00 A2981 RMK AO2 60005 T00030000 10005 20002 400260000
Pressure 29.81 in
Visibility 4.0 miles
Clouds Overcast 500 ft
Windchill 33 °F
Dew Point 32 °F
Humidity 98%
Rainfall 0.00 in
Snow Depth Not available.
7:49 AM 5:01 PM
Waxing Crescent, 29% visible
METAR KOZW 050555Z AUTO 27003KT 4SM BR OVC005 00/00 A2981 RMK AO2 60005 T00030000 10005 20002 400260000

10-Day Weather Forecast

Almanac

Astronomy

Dec. 05, 2016 Rise Set
Actual Time
Civil Twilight
Nautical Twilight
Astronomical Twilight
Moon
Length of Visible Light
Length of Day
Tomorrow will be .
, % of the Moon is Illuminated

Today's Extremes

State Highs State Lows

Community

WunderPhotos

Upload Photos

1,955,771 photos uploaded!

WunderBlog® & News

Nearby

Air Quality

  Air Quality AQ Index Pollutant
Not available.

Snow Depth

Station Depth Elevation

Earthquake Activity

City Distance Mag. Time & Date
Minimum magnitude displayed is 2.5.

Coastal Water Temperatures

Place Temperature

Stations

Nearby Weather Stations

Station Location Temp. Windchill Dew Point Humidity Wind Precip. Elev Updated Type
                   

Watches & Warnings

There are currently no watches in effect.